Terminal Aerodrome Forecast
Issued by NWS Austin/San Antonio, TX

Home | Current Version | Previous Version | Text Only | Print | Product List | Glossary On
Versions: 1 2 3 4 5 6 7 8 9 10 11 12 13 14 15 16 17 18 19 20 21
000
FTUS44 KEWX 010300 AAA
TAFSAT
TAF AMD
KSAT 010340Z 0104/0206 02013KT P6SM BKN070
     FM011000 01004KT P6SM BKN025
     FM011700 04005KT P6SM BKN050=

USA.gov is the U.S. government's official web portal to all federal, state and local government web resources and services.